createdAt,value
2023-05-14T00:00:52.099Z,97551.25
2023-05-14T00:03:19.991Z,97548.63
2023-05-14T00:05:49.215Z,97546.72
2023-05-14T00:08:16.934Z,97543.16
2023-05-14T00:10:44.726Z,97536.81
2023-05-14T00:13:12.474Z,97533.88
2023-05-14T00:15:41.694Z,97532.78
2023-05-14T00:18:12.146Z,97527.41
2023-05-14T00:20:40.092Z,97534.50
2023-05-14T00:23:07.824Z,97532.69
2023-05-14T00:25:35.795Z,97520.44
2023-05-14T00:28:04.103Z,97534.72
2023-05-14T00:30:31.916Z,97525.97
2023-05-14T00:33:01.138Z,97520.78
2023-05-14T00:35:29.031Z,97523.31
2023-05-14T00:37:56.790Z,97523.09
2023-05-14T00:40:27.344Z,97517.81
2023-05-14T00:42:55.562Z,97518.66
2023-05-14T00:45:23.425Z,97510.66
2023-05-14T00:47:51.415Z,97515.94
2023-05-14T00:50:21.347Z,97515.69
2023-05-14T00:52:49.276Z,97507.59
2023-05-14T00:55:17.734Z,97485.13
2023-05-14T00:57:45.737Z,97499.66
2023-05-14T01:00:14.355Z,97500.50
2023-05-14T01:02:42.207Z,97490.28
2023-05-14T01:05:10.363Z,97497.56
2023-05-14T01:07:48.825Z,97501.66
2023-05-14T01:10:18.706Z,97494.59
2023-05-14T01:12:49.153Z,97497.06
2023-05-14T01:15:20.662Z,97501.56
2023-05-14T01:17:53.282Z,97502.41
2023-05-14T01:20:21.327Z,97504.28
2023-05-14T01:22:50.542Z,97503.88
2023-05-14T01:25:18.576Z,97499.09
2023-05-14T01:27:52.771Z,97493.09
2023-05-14T01:30:23.766Z,97489.81
2023-05-14T01:32:54.724Z,97457.00
2023-05-14T01:35:23.889Z,97472.41
2023-05-14T01:37:53.873Z,97490.31
2023-05-14T01:40:21.853Z,97492.22
2023-05-14T01:42:51.827Z,97492.41
2023-05-14T01:45:21.287Z,97487.97
2023-05-14T01:47:49.201Z,97489.66
2023-05-14T01:50:17.094Z,97495.16
2023-05-14T01:52:44.914Z,97495.16
2023-05-14T01:55:14.051Z,97491.97
2023-05-14T01:57:41.806Z,97493.97
2023-05-14T02:00:10.231Z,97494.28
2023-05-14T02:02:38.075Z,97491.09
2023-05-14T02:05:07.185Z,97491.31
2023-05-14T02:07:34.997Z,97487.06
2023-05-14T02:10:02.777Z,97485.59
2023-05-14T02:12:31.913Z,97479.66
2023-05-14T02:14:59.746Z,97486.00
2023-05-14T02:17:27.705Z,97492.28
2023-05-14T02:20:10.647Z,97483.63
2023-05-14T02:22:41.293Z,97483.63
2023-05-14T02:25:10.510Z,97481.19
2023-05-14T02:27:39.672Z,97480.34
2023-05-14T02:30:08.644Z,97480.44
2023-05-14T02:32:36.645Z,97484.00
2023-05-14T02:35:04.646Z,97478.97
2023-05-14T02:37:32.432Z,97472.84
2023-05-14T02:40:00.302Z,97473.88
2023-05-14T02:42:28.114Z,97469.94
2023-05-14T02:44:57.206Z,97472.41
2023-05-14T02:47:25.110Z,97469.94
2023-05-14T02:49:52.958Z,97467.41
2023-05-14T02:52:20.724Z,97465.84
2023-05-14T02:54:48.515Z,97460.75
2023-05-14T02:57:16.294Z,97457.38
2023-05-14T02:59:44.047Z,97462.84
2023-05-14T03:02:13.544Z,97465.47
2023-05-14T03:04:41.725Z,97460.22
2023-05-14T03:07:09.541Z,97459.28
2023-05-14T03:09:38.415Z,97461.16
2023-05-14T03:12:07.019Z,97461.06
2023-05-14T03:14:34.887Z,97461.16
2023-05-14T03:17:03.750Z,97453.34
2023-05-14T03:19:33.063Z,97457.75
2023-05-14T03:22:00.818Z,97453.34
2023-05-14T03:24:28.611Z,97454.19
2023-05-14T03:26:56.353Z,97453.44
2023-05-14T03:29:24.206Z,97454.59
2023-05-14T03:31:51.969Z,97451.19
2023-05-14T03:34:19.812Z,97441.84
2023-05-14T03:36:48.972Z,97451.19
2023-05-14T03:39:19.756Z,97451.19
2023-05-14T03:41:47.734Z,97446.78
2023-05-14T03:44:15.811Z,97458.16
2023-05-14T03:46:43.694Z,97454.78
2023-05-14T03:49:11.543Z,97454.78
2023-05-14T03:51:39.327Z,97453.97
2023-05-14T03:54:08.555Z,97453.84
2023-05-14T03:56:36.398Z,97460.03
2023-05-14T03:59:04.208Z,97451.19
2023-05-14T04:01:32.544Z,97452.03
2023-05-14T04:04:00.382Z,97457.75
2023-05-14T04:06:28.382Z,97456.25
2023-05-14T04:08:56.192Z,97453.13
2023-05-14T04:11:25.413Z,97457.91
2023-05-14T04:13:53.212Z,97450.72
2023-05-14T04:16:21.165Z,97455.63
2023-05-14T04:18:49.056Z,97453.44
2023-05-14T04:21:16.902Z,97453.16
2023-05-14T04:23:44.642Z,97448.50
2023-05-14T04:26:12.506Z,97447.47
2023-05-14T04:28:41.635Z,97447.28
2023-05-14T04:31:09.522Z,97450.22
2023-05-14T04:33:37.241Z,97458.47
2023-05-14T04:36:06.471Z,97463.44
2023-05-14T04:38:34.275Z,97456.19
2023-05-14T04:41:02.198Z,97449.47
2023-05-14T04:43:29.964Z,97458.72
2023-05-14T04:45:59.170Z,97460.19
2023-05-14T04:48:27.038Z,97464.34
2023-05-14T04:50:54.828Z,97471.81
2023-05-14T04:53:22.593Z,97473.50
2023-05-14T04:55:50.381Z,97473.19
2023-05-14T04:58:18.176Z,97475.50
2023-05-14T05:00:46.160Z,97480.59
2023-05-14T05:03:15.606Z,97478.69
2023-05-14T05:05:43.562Z,97479.31
2023-05-14T05:08:11.873Z,97475.63
2023-05-14T05:10:39.606Z,97477.94
2023-05-14T05:13:07.383Z,97479.09
2023-05-14T05:15:35.309Z,97474.16
2023-05-14T05:18:03.238Z,97474.56
2023-05-14T05:20:32.540Z,97478.47
2023-05-14T05:23:00.626Z,97473.38
2023-05-14T05:25:28.398Z,97467.16
2023-05-14T05:27:56.227Z,97472.00
2023-05-14T05:30:24.183Z,97472.72
2023-05-14T05:32:52.211Z,97470.84
2023-05-14T05:35:20.108Z,97480.44
2023-05-14T05:37:49.270Z,97476.81
2023-05-14T05:40:17.357Z,97478.41
2023-05-14T05:42:45.199Z,97474.75
2023-05-14T05:45:13.035Z,97475.06
2023-05-14T05:47:40.974Z,97466.03
2023-05-14T05:50:09.994Z,97472.63
2023-05-14T05:52:37.833Z,97472.69
2023-05-14T05:55:07.882Z,97474.81
2023-05-14T05:57:35.731Z,97472.50
2023-05-14T06:00:12.606Z,97476.97
2023-05-14T06:02:40.594Z,97485.38
2023-05-14T06:05:09.683Z,97487.53
2023-05-14T06:07:37.593Z,97480.00
2023-05-14T06:10:07.894Z,97493.16
2023-05-14T06:12:35.822Z,97474.00
2023-05-14T06:15:03.796Z,97481.22
2023-05-14T06:17:31.635Z,97480.25
2023-05-14T06:19:59.448Z,97484.22
2023-05-14T06:22:27.337Z,97483.84
2023-05-14T06:24:55.103Z,97479.00
2023-05-14T06:27:24.242Z,97478.72
2023-05-14T06:29:52.039Z,97482.69
2023-05-14T06:32:20.011Z,97488.19
2023-05-14T06:34:47.859Z,97487.19
2023-05-14T06:37:15.610Z,97484.81
2023-05-14T06:39:48.185Z,97483.38
2023-05-14T06:42:15.976Z,97492.63
2023-05-14T06:44:45.399Z,97492.50
2023-05-14T06:47:13.316Z,97487.22
2023-05-14T06:49:41.194Z,97488.53
2023-05-14T06:52:09.323Z,97481.72
2023-05-14T06:54:37.131Z,97479.53
2023-05-14T06:57:05.265Z,97486.63
2023-05-14T06:59:33.350Z,97475.94
2023-05-14T07:02:03.194Z,97472.06
2023-05-14T07:04:31.036Z,97473.97
2023-05-14T07:06:58.947Z,97470.25
2023-05-14T07:09:27.060Z,97464.13
2023-05-14T07:11:54.820Z,97454.28
2023-05-14T07:14:22.998Z,97474.72
2023-05-14T07:16:51.186Z,97484.44
2023-05-14T07:19:20.547Z,97484.84
2023-05-14T07:21:48.684Z,97476.25
2023-05-14T07:24:16.530Z,97475.19
2023-05-14T07:26:44.466Z,97483.63
2023-05-14T07:29:12.571Z,97480.84
2023-05-14T07:31:40.457Z,97478.19
2023-05-14T07:34:10.917Z,97471.78
2023-05-14T07:36:40.152Z,97467.25
2023-05-14T07:39:08.164Z,97476.16
2023-05-14T07:41:35.941Z,97467.09
2023-05-14T07:44:05.041Z,97468.66
2023-05-14T07:46:32.993Z,97467.34
2023-05-14T07:49:00.750Z,97460.69
2023-05-14T07:51:29.570Z,97463.22
2023-05-14T07:53:58.830Z,97466.56
2023-05-14T07:56:26.780Z,97467.84
2023-05-14T07:58:55.056Z,97455.31
2023-05-14T08:01:22.940Z,97458.41
2023-05-14T08:03:50.908Z,97458.41
2023-05-14T08:06:21.010Z,97457.75
2023-05-14T08:08:48.809Z,97456.44
2023-05-14T08:11:18.563Z,97456.41
2023-05-14T08:13:46.754Z,97456.53
2023-05-14T08:16:14.651Z,97454.06
2023-05-14T08:18:42.782Z,97449.31
2023-05-14T08:21:10.723Z,97452.72
2023-05-14T08:23:38.510Z,97449.72
2023-05-14T08:26:06.840Z,97451.97
2023-05-14T08:28:36.222Z,97438.09
2023-05-14T08:31:04.110Z,97441.22
2023-05-14T08:33:32.099Z,97447.16
2023-05-14T08:36:00.716Z,97433.84
2023-05-14T08:38:28.469Z,97440.03
2023-05-14T08:40:58.236Z,97429.81
2023-05-14T08:43:27.989Z,97439.94
2023-05-14T08:45:59.969Z,97437.31
2023-05-14T08:48:28.274Z,97428.97
2023-05-14T08:50:56.612Z,97429.13
2023-05-14T08:53:24.656Z,97423.09
2023-05-14T08:55:52.865Z,97426.31
2023-05-14T08:58:20.794Z,97422.97
2023-05-14T09:00:49.228Z,97422.59
2023-05-14T09:03:18.808Z,97416.06
2023-05-14T09:05:46.888Z,97417.66
2023-05-14T09:08:14.779Z,97415.41
2023-05-14T09:10:42.549Z,97408.00
2023-05-14T09:13:10.440Z,97411.50
2023-05-14T09:15:38.662Z,97390.81
2023-05-14T09:18:06.838Z,97397.28
2023-05-14T09:20:36.106Z,97392.09
2023-05-14T09:23:04.243Z,97393.38
2023-05-14T09:25:33.003Z,97364.75
2023-05-14T09:28:00.780Z,97393.34
2023-05-14T09:30:28.563Z,97395.31
2023-05-14T09:32:56.384Z,97389.34
2023-05-14T09:35:25.497Z,97384.47
2023-05-14T09:37:55.431Z,97393.72
2023-05-14T09:40:25.161Z,97386.13
2023-05-14T09:42:53.253Z,97395.31
2023-05-14T09:45:21.249Z,97388.91
2023-05-14T09:47:49.143Z,97372.38
2023-05-14T09:50:17.015Z,97382.16
2023-05-14T09:52:44.842Z,97380.97
2023-05-14T09:55:14.741Z,97368.47
2023-05-14T09:57:42.691Z,97378.38
2023-05-14T10:00:12.768Z,97381.25
2023-05-14T10:02:41.655Z,97384.25
2023-05-14T10:05:10.458Z,97387.50
2023-05-14T10:07:42.692Z,97394.31
2023-05-14T10:10:16.642Z,97383.78
2023-05-14T10:12:47.618Z,97390.41
2023-05-14T10:15:18.850Z,97383.09
2023-05-14T10:17:50.710Z,97390.41
2023-05-14T10:20:18.730Z,97387.38
2023-05-14T10:22:46.599Z,97380.34
2023-05-14T10:25:16.009Z,97387.69
2023-05-14T10:27:44.028Z,97383.56
2023-05-14T10:30:13.620Z,97387.91
2023-05-14T10:32:42.042Z,97382.47
2023-05-14T10:35:22.726Z,97387.81
2023-05-14T10:37:52.585Z,97376.25
2023-05-14T10:40:26.071Z,97375.63
2023-05-14T10:42:54.544Z,97385.59
2023-05-14T10:45:24.064Z,97384.31
2023-05-14T10:47:52.087Z,97379.44
2023-05-14T10:50:19.975Z,97378.09
2023-05-14T10:52:47.774Z,97373.63
2023-05-14T10:55:16.867Z,97377.91
2023-05-14T10:57:47.237Z,97356.72
2023-05-14T11:00:16.222Z,97363.81
2023-05-14T11:02:45.105Z,97363.91
2023-05-14T11:05:15.982Z,97366.38
2023-05-14T11:07:45.527Z,97367.03
2023-05-14T11:10:14.169Z,97370.56
2023-05-14T11:12:43.134Z,97366.50
2023-05-14T11:15:13.869Z,97362.22
2023-05-14T11:17:42.997Z,97360.19
2023-05-14T11:20:12.712Z,97356.31
2023-05-14T11:22:42.169Z,97356.81
2023-05-14T11:25:11.056Z,97358.41
2023-05-14T11:27:39.823Z,97348.78
2023-05-14T11:30:15.775Z,97358.97
2023-05-14T11:32:45.581Z,97360.16
2023-05-14T11:35:13.752Z,97369.00
2023-05-14T11:37:41.632Z,97360.03
2023-05-14T11:40:11.105Z,97352.28
2023-05-14T11:42:38.876Z,97357.41
2023-05-14T11:45:07.750Z,97357.28
2023-05-14T11:47:36.999Z,97348.97
2023-05-14T11:50:05.956Z,97341.66
2023-05-14T11:52:38.874Z,97338.59
2023-05-14T11:55:07.863Z,97332.81
2023-05-14T11:57:36.849Z,97341.84
2023-05-14T12:00:06.535Z,97341.56
2023-05-14T12:02:34.477Z,97335.22
2023-05-14T12:05:03.765Z,97333.50
2023-05-14T12:07:32.690Z,97335.22
2023-05-14T12:10:03.876Z,97327.88
2023-05-14T12:12:36.228Z,97326.78
2023-05-14T12:15:11.180Z,97299.53
2023-05-14T12:17:39.192Z,97321.91
2023-05-14T12:20:10.505Z,97311.56
2023-05-14T12:22:38.702Z,97314.69
2023-05-14T12:25:12.545Z,97322.50
2023-05-14T12:27:41.381Z,97307.91
2023-05-14T12:32:41.633Z,97304.31
2023-05-14T12:35:11.319Z,97276.72
2023-05-14T12:37:40.079Z,97291.28
2023-05-14T12:40:09.782Z,97280.66
2023-05-14T12:42:37.821Z,97276.47
2023-05-14T12:45:08.570Z,97275.09
2023-05-14T12:47:37.477Z,97250.91
2023-05-14T12:50:06.186Z,97272.16
2023-05-14T12:52:39.307Z,97271.28
2023-05-14T12:55:08.881Z,97263.38
2023-05-14T12:57:36.878Z,97254.34
2023-05-14T13:00:12.231Z,97252.22
2023-05-14T13:02:42.543Z,97265.72
2023-05-14T13:05:11.601Z,97260.53
2023-05-14T13:07:40.883Z,97261.91
2023-05-14T13:10:09.896Z,97258.53
2023-05-14T13:12:38.748Z,97255.03
2023-05-14T13:15:07.395Z,97255.19
2023-05-14T13:17:35.223Z,97251.50
2023-05-14T13:20:03.014Z,97244.81
2023-05-14T13:22:30.902Z,97242.44
2023-05-14T13:25:00.271Z,97242.78
2023-05-14T13:27:28.296Z,97238.13
2023-05-14T13:29:56.731Z,97236.59
2023-05-14T13:32:24.524Z,97234.66
2023-05-14T13:34:52.346Z,97232.72
2023-05-14T13:37:20.165Z,97233.75
2023-05-14T13:39:49.139Z,97232.75
2023-05-14T13:42:19.858Z,97225.25
2023-05-14T13:44:47.628Z,97234.28
2023-05-14T13:47:15.374Z,97218.25
2023-05-14T13:49:43.790Z,97218.75
2023-05-14T13:52:11.563Z,97221.34
2023-05-14T13:54:39.352Z,97213.09
2023-05-14T13:57:07.127Z,97215.94
2023-05-14T13:59:36.296Z,97210.44
2023-05-14T14:02:04.323Z,97204.88
2023-05-14T14:04:32.333Z,97201.50
2023-05-14T14:07:00.127Z,97199.22
2023-05-14T14:09:27.920Z,97192.59
2023-05-14T14:11:55.717Z,97197.25
2023-05-14T14:14:23.535Z,97199.72
2023-05-14T14:16:52.663Z,97190.31
2023-05-14T14:19:20.881Z,97196.34
2023-05-14T14:24:21.508Z,97181.84
2023-05-14T14:26:49.271Z,97180.16
2023-05-14T14:29:17.039Z,97176.56
2023-05-14T14:31:44.802Z,97179.44
2023-05-14T14:34:13.942Z,97186.22
2023-05-14T14:36:41.737Z,97163.06
2023-05-14T14:39:09.492Z,97163.47
2023-05-14T14:41:37.303Z,97165.88
2023-05-14T14:44:05.594Z,97162.88
2023-05-14T14:46:33.603Z,97165.38
2023-05-14T14:49:01.409Z,97162.28
2023-05-14T14:51:31.458Z,97165.66
2023-05-14T14:53:59.516Z,97166.13
2023-05-14T14:56:27.932Z,97163.50
2023-05-14T14:58:55.663Z,97155.19
2023-05-14T15:01:23.839Z,97160.06
2023-05-14T15:03:51.667Z,97160.16
2023-05-14T15:06:19.478Z,97158.22
2023-05-14T15:08:48.614Z,97163.28
2023-05-14T15:11:16.367Z,97154.19
2023-05-14T15:13:44.157Z,97159.75
2023-05-14T15:16:12.523Z,97165.66
2023-05-14T15:18:40.436Z,97155.72
2023-05-14T15:21:08.231Z,97164.81
2023-05-14T15:23:35.998Z,97166.06
2023-05-14T15:26:05.394Z,97166.25
2023-05-14T15:28:33.288Z,97177.81
2023-05-14T15:31:02.432Z,97182.78
2023-05-14T15:33:30.212Z,97181.59
2023-05-14T15:35:58.002Z,97167.25
2023-05-14T15:38:25.768Z,97175.97
2023-05-14T15:40:53.511Z,97183.06
2023-05-14T15:43:22.655Z,97180.66
2023-05-14T15:45:50.498Z,97175.59
2023-05-14T15:48:18.324Z,97167.38
2023-05-14T15:50:48.982Z,97164.44
2023-05-14T15:53:17.398Z,97167.81
2023-05-14T15:55:45.643Z,97161.13
2023-05-14T15:58:13.864Z,97154.41
2023-05-14T16:00:42.979Z,97157.78
2023-05-14T16:03:11.129Z,97158.53
2023-05-14T16:05:39.059Z,97157.22
2023-05-14T16:08:07.469Z,97155.94
2023-05-14T16:10:35.240Z,97157.41
2023-05-14T16:13:03.021Z,97149.22
2023-05-14T16:15:30.792Z,97141.50
2023-05-14T16:18:01.019Z,97141.25
2023-05-14T16:20:28.916Z,97148.91
2023-05-14T16:22:56.685Z,97150.81
2023-05-14T16:25:24.479Z,97148.53
2023-05-14T16:27:52.303Z,97149.56
2023-05-14T16:30:20.080Z,97142.66
2023-05-14T16:32:49.532Z,97142.41
2023-05-14T16:35:18.811Z,97149.69
2023-05-14T16:37:46.562Z,97155.06
2023-05-14T16:40:16.222Z,97149.09
2023-05-14T16:42:44.320Z,97152.44
2023-05-14T16:45:13.069Z,97152.22
2023-05-14T16:47:41.423Z,97154.56
2023-05-14T16:50:09.915Z,97154.16
2023-05-14T16:52:39.032Z,97161.22
2023-05-14T16:55:07.640Z,97159.72
2023-05-14T16:57:35.623Z,97161.84
2023-05-14T17:00:06.278Z,97165.41
2023-05-14T17:02:34.265Z,97172.41
2023-05-14T17:05:02.422Z,97166.88
2023-05-14T17:07:31.205Z,97162.19
2023-05-14T17:10:00.785Z,97168.31
2023-05-14T17:12:28.615Z,97165.66
2023-05-14T17:14:56.408Z,97162.50
2023-05-14T17:17:24.231Z,97169.38
2023-05-14T17:19:52.006Z,97170.66
2023-05-14T17:22:19.766Z,97164.41
2023-05-14T17:24:47.591Z,97163.38
2023-05-14T17:27:16.872Z,97169.50
2023-05-14T17:29:44.647Z,97171.88
2023-05-14T17:32:12.470Z,97165.97
2023-05-14T17:34:40.241Z,97162.53
2023-05-14T17:37:08.098Z,97162.25
2023-05-14T17:39:35.863Z,97164.75
2023-05-14T17:42:03.815Z,97165.41
2023-05-14T17:44:32.938Z,97166.78
2023-05-14T17:47:00.832Z,97171.63
2023-05-14T17:49:28.760Z,97168.56
2023-05-14T17:51:56.542Z,97183.63
2023-05-14T17:54:24.296Z,97176.13
2023-05-14T17:56:52.189Z,97172.53
2023-05-14T17:59:19.986Z,97164.44
2023-05-14T18:01:49.403Z,97161.75
2023-05-14T18:04:17.189Z,97164.28
2023-05-14T18:06:45.719Z,97169.56
2023-05-14T18:09:13.461Z,97164.56
2023-05-14T18:11:41.235Z,97159.72
2023-05-14T18:14:08.999Z,97170.91
2023-05-14T18:16:37.777Z,97174.72
2023-05-14T18:19:07.234Z,97166.50
2023-05-14T18:21:34.991Z,97173.00
2023-05-14T18:24:02.781Z,97174.84
2023-05-14T18:26:32.212Z,97179.88
2023-05-14T18:29:01.401Z,97186.28
2023-05-14T18:31:29.232Z,97189.19
2023-05-14T18:33:57.051Z,97183.22
2023-05-14T18:36:26.153Z,97186.72
2023-05-14T18:38:53.892Z,97183.75
2023-05-14T18:41:21.727Z,97183.31
2023-05-14T18:43:49.949Z,97180.97
2023-05-14T18:46:18.129Z,97187.66
2023-05-14T18:48:46.073Z,97187.94
2023-05-14T18:51:13.904Z,97189.59
2023-05-14T18:53:43.134Z,97181.78
2023-05-14T18:56:11.339Z,97189.28
2023-05-14T18:58:39.126Z,97182.28
2023-05-14T19:01:06.967Z,97182.53
2023-05-14T19:03:35.065Z,97183.78
2023-05-14T19:06:02.978Z,97190.06
2023-05-14T19:08:30.758Z,97185.72
2023-05-14T19:10:59.892Z,97192.84
2023-05-14T19:13:28.581Z,97193.94
2023-05-14T19:15:56.565Z,97195.91
2023-05-14T19:18:24.395Z,97204.53
2023-05-14T19:20:52.150Z,97204.81
2023-05-14T19:23:19.903Z,97202.31
2023-05-14T19:25:47.727Z,97201.59
2023-05-14T19:28:18.748Z,97195.53
2023-05-14T19:30:46.516Z,97188.38
2023-05-14T19:33:14.339Z,97186.50
2023-05-14T19:35:42.099Z,97201.38
2023-05-14T19:38:10.784Z,97199.38
2023-05-14T19:40:38.616Z,97203.66
2023-05-14T19:43:07.881Z,97195.31
2023-05-14T19:45:39.229Z,97200.63
2023-05-14T19:48:07.381Z,97198.53
2023-05-14T19:50:36.834Z,97195.78
2023-05-14T19:53:04.678Z,97203.97
2023-05-14T19:55:32.472Z,97204.94
2023-05-14T19:58:00.252Z,97204.75
2023-05-14T20:00:28.205Z,97208.63
2023-05-14T20:02:59.715Z,97200.94
2023-05-14T20:05:27.896Z,97206.06
2023-05-14T20:07:55.796Z,97210.91
2023-05-14T20:10:24.336Z,97212.09
2023-05-14T20:12:52.248Z,97216.00
2023-05-14T20:15:20.031Z,97204.81
2023-05-14T20:17:47.809Z,97216.50
2023-05-14T20:20:16.942Z,97213.13
2023-05-14T20:22:44.854Z,97210.38
2023-05-14T20:25:12.767Z,97211.56
2023-05-14T20:27:41.276Z,97207.13
2023-05-14T20:30:09.894Z,97206.41
2023-05-14T20:32:37.883Z,97202.94
2023-05-14T20:35:06.446Z,97209.19
2023-05-14T20:37:35.849Z,97205.72
2023-05-14T20:40:05.172Z,97203.06
2023-05-14T20:42:33.047Z,97201.63
2023-05-14T20:45:00.870Z,97205.94
2023-05-14T20:47:30.564Z,97197.97
2023-05-14T20:49:58.427Z,97192.81
2023-05-14T20:52:26.192Z,97190.50
2023-05-14T20:54:55.338Z,97192.72
2023-05-14T20:57:23.371Z,97185.72
2023-05-14T20:59:51.132Z,97188.88
2023-05-14T21:02:18.972Z,97180.78
2023-05-14T21:04:47.272Z,97171.03
2023-05-14T21:07:15.062Z,97169.09
2023-05-14T21:09:46.389Z,97170.78
2023-05-14T21:12:15.531Z,97161.16
2023-05-14T21:14:43.339Z,97168.25
2023-05-14T21:17:11.116Z,97164.03
2023-05-14T21:19:38.924Z,97158.75
2023-05-14T21:22:07.772Z,97165.72
2023-05-14T21:24:35.528Z,97164.03
2023-05-14T21:27:03.284Z,97167.41
2023-05-14T21:29:32.424Z,97163.81
2023-05-14T21:32:00.338Z,97158.75
2023-05-14T21:34:29.773Z,97158.75
2023-05-14T21:36:58.971Z,97159.03
2023-05-14T21:39:26.688Z,97157.34
2023-05-14T21:41:54.431Z,97158.31
2023-05-14T21:44:22.293Z,97160.94
2023-05-14T21:46:51.593Z,97160.00
2023-05-14T21:49:19.312Z,97152.06
2023-05-14T21:51:47.110Z,97167.09
2023-05-14T21:54:14.837Z,97154.69
2023-05-14T21:56:42.676Z,97153.97
2023-05-14T21:59:11.108Z,97148.44
2023-05-14T22:01:51.017Z,97151.59
2023-05-14T22:04:28.681Z,97151.09
2023-05-14T22:06:57.363Z,97147.59
2023-05-14T22:09:25.178Z,97150.38
2023-05-14T22:11:52.979Z,97143.16
2023-05-14T22:14:21.031Z,97146.50
2023-05-14T22:16:48.910Z,97140.50
2023-05-14T22:19:17.053Z,97143.16
2023-05-14T22:21:46.599Z,97146.03
2023-05-14T22:24:14.527Z,97140.91
2023-05-14T22:26:42.439Z,97145.59
2023-05-14T22:29:10.865Z,97143.06
2023-05-14T22:31:38.956Z,97139.13
2023-05-14T22:34:06.720Z,97136.75
2023-05-14T22:36:34.966Z,97138.56
2023-05-14T22:39:04.495Z,97134.22
2023-05-14T22:41:32.482Z,97133.63
2023-05-14T22:44:00.518Z,97131.81
2023-05-14T22:46:28.716Z,97121.34
2023-05-14T22:48:56.562Z,97129.56
2023-05-14T22:51:24.327Z,97124.53
2023-05-14T22:53:52.287Z,97134.88
2023-05-14T22:56:21.941Z,97130.59
2023-05-14T22:58:49.694Z,97130.63
2023-05-14T23:01:17.867Z,97115.78
2023-05-14T23:03:46.016Z,97110.50
2023-05-14T23:06:14.820Z,97113.75
2023-05-14T23:08:42.762Z,97115.56
2023-05-14T23:11:10.809Z,97111.03
2023-05-14T23:13:40.266Z,97105.97
2023-05-14T23:16:08.400Z,97094.50
2023-05-14T23:18:36.781Z,97096.16
2023-05-14T23:21:04.894Z,97102.50
2023-05-14T23:23:32.728Z,97101.31
2023-05-14T23:26:01.075Z,97100.19
2023-05-14T23:28:29.052Z,97093.97
2023-05-14T23:30:58.264Z,97094.41
2023-05-14T23:33:26.119Z,97096.81
2023-05-14T23:35:54.276Z,97090.59
2023-05-14T23:38:22.285Z,97088.91
2023-05-14T23:40:50.342Z,97088.41
2023-05-14T23:43:18.279Z,97087.16
2023-05-14T23:45:46.122Z,97081.19
2023-05-14T23:48:15.380Z,97082.38
2023-05-14T23:50:44.006Z,97083.38
2023-05-14T23:53:12.009Z,97078.31
2023-05-14T23:55:39.776Z,97076.66
2023-05-14T23:58:08.018Z,97074.13
